Time;durP1;ratioP1;P1;durP2;ratioP2;P2;SDS_P1;SDS_P2;PMS_P1;PMS_P2;Temp;Humidity;BMP_temperature;BMP_pressure;BME280_temperature;BME280_humidity;BME280_pressure;Samples;Min_cycle;Max_cycle;Signal;HPM_P1;HPM_P2
2021/04/01 05:30:52;;;;;;;42.20;25.77;;;;;;;;;;4847868;23;20054;-69
2021/04/01 05:33:19;;;;;;;47.53;26.20;;;;;;;;;;4996771;28;20038;-68
2021/04/01 05:35:45;;;;;;;47.10;26.45;;;;;;;;;;5006282;28;20030;-68
2021/04/01 05:38:11;;;;;;;41.40;24.95;;;;;;;;;;4995192;28;20118;-68
2021/04/01 05:40:37;;;;;;;40.95;25.63;;;;;;;;;;4995412;28;20074;-68
2021/04/01 05:45:48;;;;;;;61.33;31.00;;;;;;;;;;4785232;28;20495;-68
2021/04/01 05:48:23;;;;;;;63.08;33.33;;;;;;;;;;5014168;28;20018;-66
2021/04/01 05:54:27;;;;;;;64.32;36.95;;;;;;;;;;4964002;28;20412;-70
2021/04/01 06:02:11;;;;;;;49.55;29.10;;;;;;;;;;5000210;28;20076;-68
2021/04/01 06:04:41;;;;;;;49.13;29.38;;;;;;;;;;5006597;28;20010;-76
2021/04/01 06:07:18;;;;;;;45.13;28.33;;;;;;;;;;5013051;28;20117;-69
2021/04/01 06:09:48;;;;;;;45.97;28.50;;;;;;;;;;5005600;28;20018;-69
2021/04/01 06:12:16;;;;;;;45.90;27.75;;;;;;;;;;5005845;28;20049;-71
2021/04/01 06:14:49;;;;;;;44.28;27.63;;;;;;;;;;5004255;28;20087;-72
2021/04/01 06:17:18;;;;;;;42.00;26.15;;;;;;;;;;4979512;28;20465;-75
2021/04/01 06:19:47;;;;;;;41.45;26.05;;;;;;;;;;4989130;28;20035;-75
2021/04/01 06:22:13;;;;;;;41.58;25.33;;;;;;;;;;5005577;28;20109;-72
2021/04/01 06:24:54;;;;;;;41.58;25.90;;;;;;;;;;4979463;28;20050;-77
2021/04/01 06:27:38;;;;;;;39.38;25.38;;;;;;;;;;5007439;28;20077;-76
2021/04/01 06:32:58;;;;;;;38.80;24.20;;;;;;;;;;5001884;28;20037;-73
2021/04/01 06:35:31;;;;;;;41.65;25.38;;;;;;;;;;4984381;28;20022;-74
2021/04/01 06:40:43;;;;;;;41.28;24.58;;;;;;;;;;5004250;28;20044;-79
2021/04/01 06:43:21;;;;;;;38.55;24.65;;;;;;;;;;4995729;28;20105;-73
2021/04/01 06:45:55;;;;;;;40.00;24.58;;;;;;;;;;4991255;28;20055;-74
2021/04/01 06:48:24;;;;;;;38.22;23.52;;;;;;;;;;4979831;28;20489;-75
2021/04/01 06:51:00;;;;;;;35.00;23.48;;;;;;;;;;4989123;28;20061;-74
2021/04/01 06:53:39;;;;;;;39.28;24.00;;;;;;;;;;4977113;28;20038;-73
2021/04/01 06:56:18;;;;;;;34.92;22.85;;;;;;;;;;4985411;28;20478;-73
2021/04/01 06:58:53;;;;;;;38.40;23.10;;;;;;;;;;4987111;28;20049;-73
2021/04/01 07:01:35;;;;;;;33.95;22.77;;;;;;;;;;4988369;28;20033;-72
2021/04/01 07:04:03;;;;;;;38.63;21.98;;;;;;;;;;4987591;28;20030;-71
2021/04/01 07:06:33;;;;;;;38.75;23.08;;;;;;;;;;4980584;28;20110;-75
2021/04/01 07:11:32;;;;;;;37.50;23.95;;;;;;;;;;4993583;28;20030;-75
2021/04/01 07:14:23;;;;;;;40.97;22.73;;;;;;;;;;4985195;28;20030;-71
2021/04/01 07:17:38;;;;;;;34.72;22.80;;;;;;;;;;4973400;28;20494;-77
2021/04/01 07:47:16;;;;;;;32.03;21.30;;;;;;;;;;5009186;28;20440;-76
2021/04/01 07:49:45;;;;;;;35.75;22.33;;;;;;;;;;4995325;28;20026;-77
2021/04/01 07:52:13;;;;;;;33.40;22.42;;;;;;;;;;5003109;28;20018;-72
2021/04/01 08:05:30;;;;;;;30.85;17.80;;;;;;;;;;5006470;28;20037;-74
2021/04/01 08:08:01;;;;;;;26.27;15.90;;;;;;;;;;4988975;28;20025;-71
2021/04/01 08:10:29;;;;;;;25.02;15.48;;;;;;;;;;4987789;28;20025;-72
2021/04/01 08:13:02;;;;;;;27.95;16.20;;;;;;;;;;4987021;28;20034;-76
2021/04/01 08:15:31;;;;;;;27.73;16.60;;;;;;;;;;4985620;28;20404;-74
2021/04/01 08:20:37;;;;;;;22.13;14.65;;;;;;;;;;5001675;28;20041;-72
2021/04/01 08:25:40;;;;;;;19.52;13.18;;;;;;;;;;4998861;28;20122;-73
2021/04/01 08:28:32;;;;;;;25.45;14.20;;;;;;;;;;4988205;28;20034;-73
2021/04/01 08:33:59;;;;;;;21.30;13.70;;;;;;;;;;5005893;28;20040;-75
2021/04/01 08:36:26;;;;;;;20.60;13.15;;;;;;;;;;4987992;28;20019;-75
2021/04/01 08:38:53;;;;;;;20.33;13.82;;;;;;;;;;5004328;28;20052;-74
2021/04/01 08:41:19;;;;;;;24.42;14.32;;;;;;;;;;4988608;28;20026;-75
2021/04/01 08:44:04;;;;;;;22.88;13.32;;;;;;;;;;4986951;28;20069;-73
2021/04/01 08:46:50;;;;;;;19.80;12.55;;;;;;;;;;4991577;28;20129;-75
2021/04/01 08:49:19;;;;;;;17.27;10.73;;;;;;;;;;4991149;28;20117;-78
2021/04/01 08:52:04;;;;;;;22.25;11.43;;;;;;;;;;4986389;28;20025;-74
2021/04/01 08:54:40;;;;;;;15.02;10.07;;;;;;;;;;4995887;28;20030;-72
2021/04/01 08:57:16;;;;;;;15.57;9.70;;;;;;;;;;4998107;28;20030;-72
2021/04/01 08:59:48;;;;;;;19.65;9.75;;;;;;;;;;4998118;28;20026;-71
2021/04/01 09:02:14;;;;;;;;;;;;;;;;;;4999319;28;20449;-74
2021/04/01 09:04:46;;;;;;;15.65;9.52;;;;;;;;;;5016120;28;19905;-72
2021/04/01 09:07:27;;;;;;;15.70;8.93;;;;;;;;;;4997943;28;20099;-71
2021/04/01 09:10:00;;;;;;;17.17;9.38;;;;;;;;;;4998149;28;20022;-70
2021/04/01 09:12:39;;;;;;;15.25;10.00;;;;;;;;;;4999035;28;20550;-71
2021/04/01 09:15:06;;;;;;;30.73;15.68;;;;;;;;;;4997906;28;20083;-72
2021/04/01 09:17:33;;;;;;;22.38;13.65;;;;;;;;;;4997893;28;20481;-69
2021/04/01 09:20:10;;;;;;;48.88;24.05;;;;;;;;;;4997941;28;20032;-71
2021/04/01 09:22:42;;;;;;;20.67;13.55;;;;;;;;;;4990329;28;20022;-71
2021/04/01 09:25:08;;;;;;;15.83;9.07;;;;;;;;;;5015351;28;20022;-69
2021/04/01 09:27:44;;;;;;;18.70;11.50;;;;;;;;;;4994978;28;20329;-70
2021/04/01 09:30:11;;;;;;;17.70;12.00;;;;;;;;;;4994924;28;20053;-71
2021/04/01 09:32:38;;;;;;;17.05;11.57;;;;;;;;;;5005237;28;20029;-70
2021/04/01 09:35:05;;;;;;;15.85;11.38;;;;;;;;;;4981521;28;20377;-70
2021/04/01 09:37:32;;;;;;;20.10;11.77;;;;;;;;;;4985320;28;20036;-72
2021/04/01 09:40:12;;;;;;;21.00;12.32;;;;;;;;;;4991748;28;20025;-71
2021/04/01 09:42:42;;;;;;;27.85;13.85;;;;;;;;;;4993989;28;20025;-70
2021/04/01 09:45:09;;;;;;;24.38;12.57;;;;;;;;;;4993047;28;20058;-68
2021/04/01 09:47:43;;;;;;;16.73;10.60;;;;;;;;;;4997884;28;20457;-70
2021/04/01 09:50:11;;;;;;;19.65;11.38;;;;;;;;;;4997437;28;20034;-69
2021/04/01 09:52:39;;;;;;;27.33;12.20;;;;;;;;;;4977890;28;20056;-70
2021/04/01 09:55:07;;;;;;;14.93;10.10;;;;;;;;;;4977882;28;20030;-70
2021/04/01 09:57:45;;;;;;;18.55;11.38;;;;;;;;;;4977424;28;20038;-70
2021/04/01 10:00:19;;;;;;;15.75;10.50;;;;;;;;;;4997397;28;20045;-69
2021/04/01 10:02:51;;;;;;;19.85;11.55;;;;;;;;;;4977248;28;20054;-70
2021/04/01 10:05:19;;;;;;;18.27;12.23;;;;;;;;;;4977148;28;20026;-72
2021/04/01 10:08:01;;;;;;;18.25;10.35;;;;;;;;;;4977489;28;20038;-72
2021/04/01 10:10:34;;;;;;;16.57;9.97;;;;;;;;;;4994644;28;20065;-73
2021/04/01 10:13:01;;;;;;;18.70;10.25;;;;;;;;;;4977488;28;20650;-73
2021/04/01 10:15:30;;;;;;;20.60;10.80;;;;;;;;;;4984046;28;20021;-69
2021/04/01 10:17:58;;;;;;;17.65;10.77;;;;;;;;;;4985001;28;20057;-69
2021/04/01 10:20:24;;;;;;;18.75;12.05;;;;;;;;;;4994737;28;20030;-71
2021/04/01 10:22:51;;;;;;;18.73;11.95;;;;;;;;;;5004566;28;20026;-71
2021/04/01 10:25:23;;;;;;;23.67;12.00;;;;;;;;;;4988888;28;20029;-72
2021/04/01 10:28:11;;;;;;;22.67;11.57;;;;;;;;;;4986888;28;20405;-72
2021/04/01 10:30:39;;;;;;;19.00;12.38;;;;;;;;;;4995779;28;20026;-72
2021/04/01 10:33:05;;;;;;;19.15;12.73;;;;;;;;;;4995725;28;20362;-74
2021/04/01 10:35:33;;;;;;;17.48;10.40;;;;;;;;;;5014008;28;20053;-70
2021/04/01 10:38:02;;;;;;;17.33;11.57;;;;;;;;;;4992473;28;20022;-73
2021/04/01 10:40:30;;;;;;;18.20;10.55;;;;;;;;;;4995123;28;20034;-71
2021/04/01 10:43:07;;;;;;;18.65;10.93;;;;;;;;;;5011593;28;20026;-72
2021/04/01 10:45:38;;;;;;;22.83;12.82;;;;;;;;;;5006091;28;20046;-72
2021/04/01 10:48:07;;;;;;;22.02;11.15;;;;;;;;;;4996401;28;20021;-71
2021/04/01 10:50:33;;;;;;;20.83;11.95;;;;;;;;;;5014197;28;20024;-73
2021/04/01 10:52:59;;;;;;;19.13;11.60;;;;;;;;;;4995811;28;20358;-73
2021/04/01 10:55:29;;;;;;;17.30;11.55;;;;;;;;;;4996121;28;20024;-74
2021/04/01 10:58:06;;;;;;;17.67;12.75;;;;;;;;;;5013942;28;20108;-73
2021/04/01 11:00:32;;;;;;;19.58;12.10;;;;;;;;;;4995917;28;20026;-72
2021/04/01 11:03:02;;;;;;;20.00;11.48;;;;;;;;;;4995692;28;20435;-73
2021/04/01 11:05:29;;;;;;;21.73;11.63;;;;;;;;;;4984456;28;20018;-71
2021/04/01 11:08:12;;;;;;;16.73;11.35;;;;;;;;;;4981713;28;20022;-72
2021/04/01 11:10:38;;;;;;;18.45;10.55;;;;;;;;;;4992669;28;20026;-72
2021/04/01 11:13:06;;;;;;;17.70;11.88;;;;;;;;;;4993653;28;20030;-72
2021/04/01 11:15:37;;;;;;;17.75;10.80;;;;;;;;;;4981288;28;20088;-73
2021/04/01 11:18:14;;;;;;;19.95;11.02;;;;;;;;;;4985069;28;20030;-71
2021/04/01 11:20:42;;;;;;;15.57;10.88;;;;;;;;;;5000010;28;20088;-71
2021/04/01 11:23:12;;;;;;;26.92;12.32;;;;;;;;;;4983887;28;20022;-71
2021/04/01 11:25:39;;;;;;;19.23;10.57;;;;;;;;;;5003411;28;20048;-73
2021/04/01 11:28:06;;;;;;;19.58;11.20;;;;;;;;;;5001365;28;20030;-73
2021/04/01 11:30:41;;;;;;;17.33;11.13;;;;;;;;;;4991541;28;20388;-71
2021/04/01 11:33:08;;;;;;;16.95;12.00;;;;;;;;;;4984281;28;20026;-72
2021/04/01 11:35:37;;;;;;;19.58;11.77;;;;;;;;;;4983321;28;20014;-72
2021/04/01 11:38:10;;;;;;;17.02;11.30;;;;;;;;;;5002748;28;20030;-72
2021/04/01 11:40:38;;;;;;;19.33;12.48;;;;;;;;;;4992548;28;20030;-71
2021/04/01 11:43:04;;;;;;;17.27;11.50;;;;;;;;;;5003927;28;20373;-73
2021/04/01 11:45:38;;;;;;;20.15;11.23;;;;;;;;;;4983391;28;20045;-72
2021/04/01 11:48:05;;;;;;;15.52;10.15;;;;;;;;;;5002511;28;20041;-71
2021/04/01 11:50:31;;;;;;;18.08;10.73;;;;;;;;;;5002146;28;20099;-72
2021/04/01 11:53:00;;;;;;;16.67;9.57;;;;;;;;;;4986497;28;20408;-72
2021/04/01 11:55:27;;;;;;;16.60;10.88;;;;;;;;;;5002959;28;20069;-72
2021/04/01 11:57:53;;;;;;;16.92;11.27;;;;;;;;;;5003906;28;20025;-71
2021/04/01 12:00:27;;;;;;;17.90;9.80;;;;;;;;;;4984169;28;20066;-73
2021/04/01 12:02:58;;;;;;;18.52;10.43;;;;;;;;;;5000779;28;20027;-68
2021/04/01 12:05:27;;;;;;;17.10;11.30;;;;;;;;;;5004816;28;20030;-72
2021/04/01 12:07:53;;;;;;;20.83;10.45;;;;;;;;;;4992279;28;20117;-69
2021/04/01 12:10:19;;;;;;;19.52;10.45;;;;;;;;;;5008933;28;20033;-71
2021/04/01 12:12:51;;;;;;;17.15;10.48;;;;;;;;;;5010830;28;20377;-71
2021/04/01 12:15:28;;;;;;;16.23;10.25;;;;;;;;;;5003870;28;20120;-72
2021/04/01 12:17:55;;;;;;;15.65;10.45;;;;;;;;;;5015233;28;20026;-73
2021/04/01 12:20:22;;;;;;;14.77;10.15;;;;;;;;;;4989680;28;20026;-69
2021/04/01 12:22:48;;;;;;;14.23;9.73;;;;;;;;;;4978577;28;20038;-74
2021/04/01 12:25:18;;;;;;;19.38;10.38;;;;;;;;;;5007811;28;20018;-72
2021/04/01 12:27:57;;;;;;;15.23;10.55;;;;;;;;;;5014718;28;20018;-72
2021/04/01 12:30:28;;;;;;;16.65;10.80;;;;;;;;;;5002913;28;20026;-71
2021/04/01 12:33:06;;;;;;;15.52;10.05;;;;;;;;;;4997444;28;20123;-70
2021/04/01 12:35:32;;;;;;;17.42;10.32;;;;;;;;;;4992123;28;20476;-73
2021/04/01 12:38:03;;;;;;;18.42;10.18;;;;;;;;;;4998021;28;20053;-75
2021/04/01 12:40:36;;;;;;;16.42;10.68;;;;;;;;;;5013678;28;20033;-70
2021/04/01 12:43:06;;;;;;;16.27;9.90;;;;;;;;;;4996888;28;20034;-73
2021/04/01 12:45:33;;;;;;;16.05;10.25;;;;;;;;;;4994252;28;20101;-72
2021/04/01 12:48:07;;;;;;;14.90;9.88;;;;;;;;;;4993691;28;20104;-75
2021/04/01 12:50:34;;;;;;;17.67;10.18;;;;;;;;;;4987405;28;20117;-70
2021/04/01 12:53:00;;;;;;;15.85;9.50;;;;;;;;;;4983467;28;20023;-72
2021/04/01 12:55:48;;;;;;;16.45;10.18;;;;;;;;;;4990204;28;20378;-73
2021/04/01 12:58:54;;;;;;;13.90;10.00;;;;;;;;;;4989883;28;20046;-73
2021/04/01 13:02:04;;;;;;;16.27;10.77;;;;;;;;;;4982484;28;20027;-75
2021/04/01 13:04:12;;;;;;;16.42;10.07;;;;;;;;;;4989551;28;20030;-71
2021/04/01 13:12:15;;;;;;;15.13;9.45;;;;;;;;;;4976446;28;20033;-74
2021/04/01 13:14:41;;;;;;;16.08;9.00;;;;;;;;;;4975219;28;20041;-71
2021/04/01 13:17:08;;;;;;;14.23;8.98;;;;;;;;;;4974097;28;20027;-71
2021/04/01 13:19:35;;;;;;;13.82;8.10;;;;;;;;;;4976202;28;20054;-73
2021/04/01 13:27:03;;;;;;;10.18;6.68;;;;;;;;;;4994904;28;20037;-68
2021/04/01 13:29:34;;;;;;;13.65;7.00;;;;;;;;;;4995749;28;20022;-71
2021/04/01 13:37:40;;;;;;;11.07;7.20;;;;;;;;;;4957273;28;20027;-72
2021/04/01 13:40:11;;;;;;;13.88;7.00;;;;;;;;;;4949627;28;20130;-74
2021/04/01 13:42:39;;;;;;;11.33;6.40;;;;;;;;;;4948420;29;20019;-74
2021/04/01 13:45:11;;;;;;;11.50;6.28;;;;;;;;;;4963377;28;20047;-73
2021/04/01 13:47:41;;;;;;;13.00;6.43;;;;;;;;;;4962035;28;20121;-70
2021/04/01 13:50:10;;;;;;;13.07;8.00;;;;;;;;;;4973792;28;20158;-69
2021/04/01 13:52:53;;;;;;;15.98;7.75;;;;;;;;;;4947345;29;20117;-72
2021/04/01 13:55:34;;;;;;;11.68;6.72;;;;;;;;;;4937609;28;20093;-71
2021/04/01 14:01:03;;;;;;;14.60;7.70;;;;;;;;;;4961131;28;20110;-72
2021/04/01 14:09:46;;;;;;;13.88;7.90;;;;;;;;;;4893074;29;20072;-76
2021/04/01 14:12:17;;;;;;;18.13;7.53;;;;;;;;;;4910664;29;20088;-78
2021/04/01 14:14:44;;;;;;;13.57;8.82;;;;;;;;;;4917459;29;20036;-75
2021/04/01 14:17:10;;;;;;;15.75;8.25;;;;;;;;;;4914900;29;20020;-71
2021/04/01 14:19:36;;;;;;;14.98;9.43;;;;;;;;;;4920370;29;20468;-72
2021/04/01 14:22:03;;;;;;;16.15;9.05;;;;;;;;;;4919442;29;20027;-74
2021/04/01 14:24:43;;;;;;;13.30;8.68;;;;;;;;;;4915747;29;20035;-71
2021/04/01 14:27:25;;;;;;;12.48;7.10;;;;;;;;;;4922717;29;20043;-72
2021/04/01 14:29:56;;;;;;;14.75;9.18;;;;;;;;;;4922917;29;20115;-71
2021/04/01 14:32:23;;;;;;;12.32;9.13;;;;;;;;;;4923888;29;20611;-74
2021/04/01 14:34:49;;;;;;;14.30;8.52;;;;;;;;;;4935015;29;20082;-70
2021/04/01 14:37:15;;;;;;;13.85;8.32;;;;;;;;;;4923572;29;20032;-72
2021/04/01 14:39:41;;;;;;;12.07;8.70;;;;;;;;;;4941163;28;20047;-72
2021/04/01 14:42:12;;;;;;;17.23;7.88;;;;;;;;;;4987598;28;20076;-73
2021/04/01 14:44:41;;;;;;;12.68;8.48;;;;;;;;;;4987570;28;20046;-75
2021/04/01 14:47:07;;;;;;;14.13;8.65;;;;;;;;;;4988564;28;20030;-72
2021/04/01 14:49:33;;;;;;;13.93;8.10;;;;;;;;;;4986829;28;20054;-72
2021/04/01 14:51:59;;;;;;;13.18;7.55;;;;;;;;;;4989641;28;20037;-73
2021/04/01 14:54:29;;;;;;;11.93;7.20;;;;;;;;;;4981210;28;20019;-72
2021/04/01 14:56:58;;;;;;;13.90;7.63;;;;;;;;;;4985582;28;20064;-74
2021/04/01 14:59:29;;;;;;;10.73;7.40;;;;;;;;;;4987273;28;20834;-74
2021/04/01 15:01:56;;;;;;;14.98;7.95;;;;;;;;;;4984173;28;20519;-74
2021/04/01 15:04:24;;;;;;;11.32;6.65;;;;;;;;;;4983537;28;20537;-73
2021/04/01 15:06:51;;;;;;;13.35;7.88;;;;;;;;;;4988392;28;20030;-73
2021/04/01 15:09:22;;;;;;;12.95;7.63;;;;;;;;;;4986343;28;20073;-72
2021/04/01 15:11:50;;;;;;;12.93;7.53;;;;;;;;;;4987092;28;20023;-72
2021/04/01 15:14:17;;;;;;;16.25;9.88;;;;;;;;;;4987079;28;20026;-70
2021/04/01 15:16:43;;;;;;;12.10;8.80;;;;;;;;;;4988159;28;20517;-71
2021/04/01 15:19:09;;;;;;;15.55;8.20;;;;;;;;;;4990177;28;20058;-67
2021/04/01 15:21:36;;;;;;;15.00;11.50;;;;;;;;;;4991881;28;20073;-71
2021/04/01 15:24:14;;;;;;;19.83;9.60;;;;;;;;;;4985515;28;20089;-65
2021/04/01 15:26:44;;;;;;;12.85;9.20;;;;;;;;;;4984422;28;20041;-70
2021/04/01 15:29:10;;;;;;;14.60;8.02;;;;;;;;;;4976988;28;20033;-72
2021/04/01 15:31:36;;;;;;;13.45;8.20;;;;;;;;;;4986122;28;20158;-71
2021/04/01 15:34:02;;;;;;;15.75;8.25;;;;;;;;;;4986589;28;20082;-71
2021/04/01 15:36:31;;;;;;;13.90;7.40;;;;;;;;;;4986986;28;20105;-72
2021/04/01 15:38:58;;;;;;;13.45;7.93;;;;;;;;;;4985418;28;20038;-69
2021/04/01 15:41:32;;;;;;;12.40;7.85;;;;;;;;;;4992200;28;20417;-70
2021/04/01 15:43:58;;;;;;;14.00;7.22;;;;;;;;;;4986810;28;20524;-70
2021/04/01 15:46:25;;;;;;;12.13;7.75;;;;;;;;;;5003277;28;20020;-71
2021/04/01 15:48:51;;;;;;;11.07;6.60;;;;;;;;;;5004664;28;20034;-71
2021/04/01 15:51:18;;;;;;;8.35;6.03;;;;;;;;;;5004582;28;20030;-73
2021/04/01 15:53:44;;;;;;;9.93;6.47;;;;;;;;;;5002202;28;20029;-71
2021/04/01 15:56:14;;;;;;;12.18;6.40;;;;;;;;;;4990637;28;20025;-71
2021/04/01 15:58:41;;;;;;;15.85;7.38;;;;;;;;;;5006907;28;20026;-69
2021/04/01 16:01:08;;;;;;;9.40;6.20;;;;;;;;;;4994353;28;20033;-70
2021/04/01 16:03:35;;;;;;;10.35;6.20;;;;;;;;;;4983082;28;20018;-72
2021/04/01 16:06:02;;;;;;;11.82;6.70;;;;;;;;;;5004441;28;20026;-71
2021/04/01 16:08:34;;;;;;;12.38;6.32;;;;;;;;;;5011319;28;20060;-70
2021/04/01 16:11:16;;;;;;;13.32;6.97;;;;;;;;;;4987236;28;20084;-74
2021/04/01 16:13:55;;;;;;;11.18;6.50;;;;;;;;;;4986234;28;20055;-70
2021/04/01 16:16:23;;;;;;;15.98;6.72;;;;;;;;;;5010021;28;20124;-72
2021/04/01 16:18:49;;;;;;;13.40;6.88;;;;;;;;;;5006978;28;20417;-71
2021/04/01 16:21:19;;;;;;;12.55;6.45;;;;;;;;;;5003623;28;20113;-73
2021/04/01 16:23:45;;;;;;;14.52;7.10;;;;;;;;;;4995106;28;20030;-72
2021/04/01 16:26:14;;;;;;;12.70;6.40;;;;;;;;;;5006085;28;20041;-71
2021/04/01 16:28:43;;;;;;;10.65;6.68;;;;;;;;;;4979954;28;20544;-72
2021/04/01 16:31:09;;;;;;;13.60;7.30;;;;;;;;;;5001568;28;20400;-69
2021/04/01 16:33:36;;;;;;;13.32;6.70;;;;;;;;;;4996831;28;20030;-69
2021/04/01 16:36:04;;;;;;;9.63;6.05;;;;;;;;;;4996233;28;20026;-70
2021/04/01 16:38:31;;;;;;;10.60;6.22;;;;;;;;;;4995845;28;20030;-70
2021/04/01 16:40:58;;;;;;;14.18;6.32;;;;;;;;;;4978352;28;20030;-71
2021/04/01 16:43:25;;;;;;;10.85;6.43;;;;;;;;;;4983118;28;20022;-70
2021/04/01 16:45:52;;;;;;;14.63;7.10;;;;;;;;;;4986299;28;20054;-70
2021/04/01 16:48:19;;;;;;;11.52;6.57;;;;;;;;;;4986181;28;20125;-69
2021/04/01 16:50:45;;;;;;;16.45;6.95;;;;;;;;;;5002301;28;20090;-71
2021/04/01 16:53:18;;;;;;;17.35;7.53;;;;;;;;;;5008840;28;20033;-71
2021/04/01 16:55:45;;;;;;;16.08;7.38;;;;;;;;;;5008518;28;20022;-69
2021/04/01 16:58:11;;;;;;;18.63;7.60;;;;;;;;;;4983375;28;20036;-70
2021/04/01 17:00:40;;;;;;;18.83;10.88;;;;;;;;;;5004274;28;20033;-75
2021/04/01 17:03:07;;;;;;;19.60;8.75;;;;;;;;;;5004070;28;20072;-75
2021/04/01 17:05:33;;;;;;;21.73;9.88;;;;;;;;;;4990208;28;20022;-71
2021/04/01 17:08:00;;;;;;;17.23;9.05;;;;;;;;;;4994013;28;20096;-69
2021/04/01 17:10:27;;;;;;;16.33;9.52;;;;;;;;;;5006631;28;20018;-71
2021/04/01 17:12:53;;;;;;;18.15;10.18;;;;;;;;;;5008595;28;20027;-70
2021/04/01 17:15:19;;;;;;;18.10;10.52;;;;;;;;;;4995513;28;20096;-71
2021/04/01 17:18:06;;;;;;;19.33;12.18;;;;;;;;;;4996414;28;20053;-74
2021/04/01 17:20:39;;;;;;;21.48;11.85;;;;;;;;;;4992658;28;20030;-71
2021/04/01 17:23:06;;;;;;;20.88;10.85;;;;;;;;;;4996114;28;20034;-71
2021/04/01 17:25:34;;;;;;;19.85;11.75;;;;;;;;;;4996831;28;20465;-76
2021/04/01 17:28:16;;;;;;;22.75;11.75;;;;;;;;;;4986497;28;20076;-75
2021/04/01 17:30:53;;;;;;;19.48;10.40;;;;;;;;;;5006782;28;20041;-73
2021/04/01 17:33:21;;;;;;;22.38;10.88;;;;;;;;;;5014691;28;20022;-75
2021/04/01 17:35:47;;;;;;;19.83;12.25;;;;;;;;;;4994234;28;20018;-71
2021/04/01 17:38:13;;;;;;;23.77;12.20;;;;;;;;;;4992075;28;20513;-70
2021/04/01 17:40:40;;;;;;;24.10;12.23;;;;;;;;;;4986097;28;20038;-72
2021/04/01 17:43:06;;;;;;;23.30;13.10;;;;;;;;;;4993793;28;20117;-72
2021/04/01 17:45:45;;;;;;;23.52;14.27;;;;;;;;;;5008832;28;20066;-76
2021/04/01 17:48:12;;;;;;;30.95;17.60;;;;;;;;;;5014410;28;20104;-71
2021/04/01 17:50:38;;;;;;;47.22;26.20;;;;;;;;;;4997168;28;20024;-69
2021/04/01 17:53:05;;;;;;;43.03;23.55;;;;;;;;;;4997204;28;20342;-70
2021/04/01 17:55:49;;;;;;;50.00;23.45;;;;;;;;;;4997099;28;20022;-71
2021/04/01 17:58:16;;;;;;;45.90;25.73;;;;;;;;;;5004979;28;20067;-69
2021/04/01 18:00:48;;;;;;;53.20;27.42;;;;;;;;;;4987268;28;20136;-70
2021/04/01 18:24:51;;;;;;;45.60;22.67;;;;;;;;;;5014132;28;20037;-73
2021/04/01 18:29:44;;;;;;;54.78;30.50;;;;;;;;;;5013697;28;20127;-71
2021/04/01 18:32:13;;;;;;;50.72;28.25;;;;;;;;;;4996491;28;20022;-72
2021/04/01 18:42:07;;;;;;;36.10;20.50;;;;;;;;;;5013361;28;20381;-70
2021/04/01 18:44:38;;;;;;;40.05;23.65;;;;;;;;;;4995682;28;20065;-72
2021/04/01 18:49:37;;;;;;;35.03;19.58;;;;;;;;;;5013491;28;20092;-73
2021/04/01 18:52:06;;;;;;;27.90;16.50;;;;;;;;;;4990920;28;20025;-71
2021/04/01 18:54:48;;;;;;;32.08;18.13;;;;;;;;;;4999628;28;20088;-67
2021/04/01 18:57:21;;;;;;;32.55;19.42;;;;;;;;;;5013028;28;20080;-72
2021/04/01 18:59:54;;;;;;;39.45;19.98;;;;;;;;;;4994140;28;20030;-72
2021/04/01 19:02:21;;;;;;;27.88;17.02;;;;;;;;;;4995154;28;20377;-71
2021/04/01 19:05:30;;;;;;;29.98;17.85;;;;;;;;;;4994700;28;20030;-74
2021/04/01 19:07:40;;;;;;;30.83;18.52;;;;;;;;;;4993433;28;20034;-73
2021/04/01 19:10:23;;;;;;;27.77;14.80;;;;;;;;;;4976223;28;20049;-73
2021/04/01 19:21:45;;;;;;;29.40;15.70;;;;;;;;;;4997849;28;20049;-73
2021/04/01 19:24:12;;;;;;;24.52;13.80;;;;;;;;;;5008370;28;20030;-73
2021/04/01 19:26:38;;;;;;;21.83;11.48;;;;;;;;;;4988807;28;20017;-73
2021/04/01 19:29:08;;;;;;;22.98;12.93;;;;;;;;;;4990363;28;20397;-73
2021/04/01 19:31:35;;;;;;;21.90;12.35;;;;;;;;;;4989064;28;20025;-75
2021/04/01 19:34:01;;;;;;;20.45;11.90;;;;;;;;;;4988785;28;20022;-73
2021/04/01 19:36:28;;;;;;;23.65;12.85;;;;;;;;;;4988580;28;20477;-74
2021/04/01 19:38:54;;;;;;;19.40;11.95;;;;;;;;;;4985551;28;20030;-75
2021/04/01 19:41:22;;;;;;;20.98;11.82;;;;;;;;;;4982715;28;20418;-72
2021/04/01 19:43:48;;;;;;;19.05;11.38;;;;;;;;;;4989893;28;20462;-72
2021/04/01 19:46:14;;;;;;;16.88;10.38;;;;;;;;;;4988075;28;20399;-72
2021/04/01 19:48:42;;;;;;;17.10;9.82;;;;;;;;;;4990410;28;20028;-73
2021/04/01 19:51:08;;;;;;;22.08;11.73;;;;;;;;;;4987631;28;20084;-71
2021/04/01 19:53:35;;;;;;;18.55;11.00;;;;;;;;;;5007698;28;20018;-73
2021/04/01 19:56:01;;;;;;;25.02;14.20;;;;;;;;;;4989414;28;20033;-73
2021/04/01 19:58:27;;;;;;;26.95;14.65;;;;;;;;;;5006656;28;20509;-73
2021/04/01 20:00:53;;;;;;;26.58;14.70;;;;;;;;;;5006692;28;20100;-73
2021/04/01 20:03:20;;;;;;;25.60;14.45;;;;;;;;;;4987335;28;20121;-71
2021/04/01 20:05:47;;;;;;;25.65;14.00;;;;;;;;;;4989309;28;20469;-70
2021/04/01 20:08:13;;;;;;;27.45;14.18;;;;;;;;;;4988580;28;20033;-70
2021/04/01 20:10:40;;;;;;;26.08;14.85;;;;;;;;;;4987342;28;20030;-71
2021/04/01 20:13:10;;;;;;;27.95;15.38;;;;;;;;;;4987035;28;20053;-72
2021/04/01 20:15:36;;;;;;;34.65;19.17;;;;;;;;;;4988973;28;20010;-72
2021/04/01 20:18:03;;;;;;;26.73;14.85;;;;;;;;;;4989601;28;20035;-71
2021/04/01 20:20:29;;;;;;;32.03;15.18;;;;;;;;;;4989180;28;20477;-73
2021/04/01 20:22:55;;;;;;;31.95;17.02;;;;;;;;;;5006041;28;20099;-72
2021/04/01 20:25:21;;;;;;;27.95;15.82;;;;;;;;;;4988591;28;20026;-76
2021/04/01 20:27:49;;;;;;;31.98;16.58;;;;;;;;;;5004022;28;20030;-73
2021/04/01 20:30:17;;;;;;;27.77;16.23;;;;;;;;;;4988635;28;20017;-72
2021/04/01 20:32:43;;;;;;;31.10;15.90;;;;;;;;;;4989046;28;20022;-73
2021/04/01 20:35:10;;;;;;;31.58;15.43;;;;;;;;;;4986102;28;20033;-72
2021/04/01 20:37:36;;;;;;;27.70;14.35;;;;;;;;;;4997323;28;20112;-71
2021/04/01 20:40:07;;;;;;;28.60;15.65;;;;;;;;;;4988770;28;20420;-72
2021/04/01 20:42:33;;;;;;;27.58;15.35;;;;;;;;;;4989488;28;20076;-72
2021/04/01 20:44:59;;;;;;;30.85;14.60;;;;;;;;;;4998129;28;20072;-71
2021/04/01 20:47:25;;;;;;;25.65;14.60;;;;;;;;;;4987849;28;20022;-71
2021/04/01 20:49:51;;;;;;;29.17;15.95;;;;;;;;;;4988978;28;20093;-73
2021/04/01 20:52:17;;;;;;;27.20;14.45;;;;;;;;;;5004455;28;20026;-72
2021/04/01 20:54:44;;;;;;;32.75;17.80;;;;;;;;;;4987891;28;20033;-73
2021/04/01 20:57:10;;;;;;;34.10;17.42;;;;;;;;;;4988458;28;20027;-69
2021/04/01 20:59:36;;;;;;;28.05;15.82;;;;;;;;;;4986610;28;20374;-70
2021/04/01 21:02:02;;;;;;;34.03;17.35;;;;;;;;;;4986246;28;20033;-70
2021/04/01 21:04:28;;;;;;;27.60;15.57;;;;;;;;;;4988821;28;20018;-69
2021/04/01 21:06:55;;;;;;;24.73;14.52;;;;;;;;;;5003548;28;20072;-69
2021/04/01 21:09:21;;;;;;;28.45;15.60;;;;;;;;;;4991457;28;20160;-70
2021/04/01 21:11:47;;;;;;;27.17;13.98;;;;;;;;;;4991715;28;20022;-69
2021/04/01 21:14:13;;;;;;;27.83;13.32;;;;;;;;;;5005993;28;20022;-69
2021/04/01 21:16:39;;;;;;;28.67;15.02;;;;;;;;;;5004099;28;20050;-70
2021/04/01 21:19:05;;;;;;;28.08;14.70;;;;;;;;;;5004770;28;20022;-70
2021/04/01 21:21:32;;;;;;;23.58;13.30;;;;;;;;;;5003263;28;20028;-68
2021/04/01 21:23:58;;;;;;;23.25;13.45;;;;;;;;;;5005776;28;20029;-70
2021/04/01 21:26:24;;;;;;;20.05;12.30;;;;;;;;;;5003626;28;20022;-69
2021/04/01 21:28:50;;;;;;;22.98;12.65;;;;;;;;;;5005121;28;20105;-68
2021/04/01 21:31:16;;;;;;;27.58;13.07;;;;;;;;;;4998493;28;20041;-69
2021/04/01 21:33:43;;;;;;;23.92;12.13;;;;;;;;;;4978299;28;20383;-71
2021/04/01 21:36:11;;;;;;;24.33;11.93;;;;;;;;;;4977572;28;20030;-69
2021/04/01 21:38:40;;;;;;;26.65;13.23;;;;;;;;;;4977143;28;20154;-68
2021/04/01 21:41:07;;;;;;;23.08;12.88;;;;;;;;;;4978065;28;20088;-68
2021/04/01 21:43:34;;;;;;;22.08;10.88;;;;;;;;;;4994860;28;20019;-68
2021/04/01 21:46:00;;;;;;;25.10;12.35;;;;;;;;;;4974331;28;20063;-70
2021/04/01 21:48:26;;;;;;;23.23;13.10;;;;;;;;;;4974314;28;20030;-67
2021/04/01 21:50:57;;;;;;;21.52;12.48;;;;;;;;;;4975382;28;20510;-69
2021/04/01 21:53:23;;;;;;;23.40;12.75;;;;;;;;;;4975559;28;20027;-68
2021/04/01 21:55:50;;;;;;;21.17;12.15;;;;;;;;;;4975998;28;20038;-68
2021/04/01 21:58:17;;;;;;;21.40;11.70;;;;;;;;;;4975474;28;20046;-69
2021/04/01 22:01:01;;;;;;;22.50;12.23;;;;;;;;;;4975543;28;20027;-70
2021/04/01 22:03:29;;;;;;;21.48;11.82;;;;;;;;;;4974410;28;20026;-70
2021/04/01 22:05:56;;;;;;;18.73;10.80;;;;;;;;;;4974430;28;20074;-68
2021/04/01 22:08:26;;;;;;;19.55;10.73;;;;;;;;;;4972290;28;20382;-71
2021/04/01 22:10:54;;;;;;;18.17;9.98;;;;;;;;;;4974062;28;20042;-69
2021/04/01 22:13:22;;;;;;;19.33;10.73;;;;;;;;;;4974836;28;20394;-72
2021/04/01 22:15:49;;;;;;;16.95;10.63;;;;;;;;;;4973963;28;20025;-70
2021/04/01 22:18:16;;;;;;;14.43;9.05;;;;;;;;;;4974505;28;20027;-69
